createdAt,value
2019-01-27T00:02:03.100Z,82.23
2019-01-27T00:04:34.507Z,82.63
2019-01-27T00:07:05.639Z,82.89
2019-01-27T00:09:36.282Z,83.33
2019-01-27T00:12:07.031Z,83.42
2019-01-27T00:14:38.542Z,83.55
2019-01-27T00:17:09.076Z,83.93
2019-01-27T00:19:40.152Z,84.14
2019-01-27T00:22:11.394Z,84.21
2019-01-27T00:24:42.121Z,84.45
2019-01-27T00:27:12.693Z,84.48
2019-01-27T00:29:44.152Z,84.46
2019-01-27T00:32:15.641Z,83.84
2019-01-27T00:34:46.404Z,84.20
2019-01-27T00:37:17.236Z,84.73
2019-01-27T00:39:48.249Z,85.07
2019-01-27T00:42:19.261Z,85.18
2019-01-27T00:44:50.174Z,85.17
2019-01-27T00:47:21.146Z,84.95
2019-01-27T00:49:52.173Z,84.25
2019-01-27T00:52:24.653Z,84.86
2019-01-27T00:54:57.100Z,84.92
2019-01-27T00:57:28.190Z,85.08
2019-01-27T01:00:00.250Z,84.68
2019-01-27T01:02:30.857Z,85.31
2019-01-27T01:05:03.308Z,85.61
2019-01-27T01:07:34.353Z,86.07
2019-01-27T01:10:06.808Z,86.86
2019-01-27T01:12:39.346Z,87.58
2019-01-27T01:15:11.945Z,88.20
2019-01-27T01:17:43.939Z,88.96
2019-01-27T01:20:17.995Z,88.94
2019-01-27T01:22:50.024Z,88.33
2019-01-27T01:25:22.154Z,87.57
2019-01-27T01:27:54.496Z,85.87
2019-01-27T01:30:27.964Z,85.72
2019-01-27T01:32:59.458Z,85.77
2019-01-27T01:35:34.049Z,85.80
2019-01-27T01:38:06.149Z,85.59
2019-01-27T01:40:38.528Z,85.57
2019-01-27T01:43:09.469Z,86.25
2019-01-27T01:45:41.266Z,87.11
2019-01-27T01:48:12.861Z,87.91
2019-01-27T01:50:44.482Z,88.71
2019-01-27T01:53:14.850Z,89.29
2019-01-27T01:55:47.381Z,89.84
2019-01-27T01:58:18.595Z,89.84
2019-01-27T02:00:49.415Z,91.30
2019-01-27T02:03:22.082Z,91.45
2019-01-27T02:05:54.411Z,91.45
2019-01-27T02:08:25.551Z,92.22
2019-01-27T02:10:56.616Z,92.92
2019-01-27T02:13:27.569Z,92.92
2019-01-27T02:16:16.434Z,94.14
2019-01-27T02:18:47.763Z,94.44
2019-01-27T02:21:19.616Z,95.07
2019-01-27T02:23:52.547Z,95.07
2019-01-27T02:26:23.647Z,95.68
2019-01-27T02:28:54.052Z,95.68
2019-01-27T02:31:25.503Z,95.66
2019-01-27T02:33:56.702Z,95.66
2019-01-27T02:36:27.611Z,96.50
2019-01-27T02:38:58.678Z,96.50
2019-01-27T02:41:29.690Z,96.49
2019-01-27T02:44:00.768Z,96.67
2019-01-27T02:46:31.652Z,96.96
2019-01-27T02:49:02.642Z,96.94
2019-01-27T02:51:33.704Z,97.03
2019-01-27T02:54:05.243Z,97.03
2019-01-27T02:56:37.696Z,97.01
2019-01-27T02:59:09.785Z,97.02
2019-01-27T03:01:40.690Z,97.05
2019-01-27T03:04:11.767Z,97.09
2019-01-27T03:07:17.140Z,97.16
2019-01-27T03:09:50.795Z,97.34
2019-01-27T03:12:23.855Z,97.34
2019-01-27T03:14:56.854Z,97.34
2019-01-27T03:17:27.890Z,97.33
2019-01-27T03:19:59.815Z,97.26
2019-01-27T03:22:32.008Z,97.26
2019-01-27T03:25:05.726Z,97.19
2019-01-27T03:27:36.101Z,96.63
2019-01-27T03:30:12.425Z,96.18
2019-01-27T03:32:43.884Z,95.67
2019-01-27T03:35:16.986Z,95.59
2019-01-27T03:37:48.944Z,95.59
2019-01-27T03:40:19.979Z,95.55
2019-01-27T03:42:51.009Z,95.75
2019-01-27T03:45:21.906Z,95.75
2019-01-27T03:47:53.016Z,95.70
2019-01-27T03:50:23.981Z,95.93
2019-01-27T03:52:54.894Z,96.16
2019-01-27T03:55:27.212Z,96.04
2019-01-27T03:58:00.318Z,95.97
2019-01-27T04:00:31.105Z,96.01
2019-01-27T04:03:02.121Z,95.75
2019-01-27T04:05:33.069Z,95.49
2019-01-27T04:08:06.448Z,95.47
2019-01-27T04:10:37.026Z,95.60
2019-01-27T04:13:09.155Z,95.66
2019-01-27T04:15:42.234Z,95.76
2019-01-27T04:18:12.879Z,95.65
2019-01-27T04:20:44.164Z,95.45
2019-01-27T04:23:15.511Z,95.33
2019-01-27T04:25:46.198Z,95.31
2019-01-27T04:28:17.259Z,95.27
2019-01-27T04:30:48.100Z,95.38
2019-01-27T04:33:19.112Z,95.63
2019-01-27T04:35:52.134Z,96.00
2019-01-27T04:38:25.239Z,96.29
2019-01-27T04:40:58.212Z,96.33
2019-01-27T04:43:29.125Z,96.59
2019-01-27T04:46:00.295Z,96.48
2019-01-27T04:48:34.902Z,96.51
2019-01-27T04:51:07.291Z,96.76
2019-01-27T04:53:38.506Z,97.05
2019-01-27T04:56:09.431Z,97.29
2019-01-27T04:58:40.292Z,97.49
2019-01-27T05:01:11.348Z,97.75
2019-01-27T05:03:48.157Z,97.97
2019-01-27T05:06:19.292Z,98.20
2019-01-27T05:08:51.326Z,98.40
2019-01-27T05:11:23.324Z,98.57
2019-01-27T05:13:54.453Z,98.88
2019-01-27T05:16:25.449Z,99.14
2019-01-27T05:18:56.312Z,99.42
2019-01-27T05:21:27.528Z,99.73
2019-01-27T05:23:58.326Z,100.00
2019-01-27T05:26:29.485Z,100.00
2019-01-27T05:29:00.482Z,100.00
2019-01-27T05:31:31.464Z,100.00
2019-01-27T05:34:03.427Z,100.00
2019-01-27T05:36:36.503Z,100.00
2019-01-27T05:39:09.096Z,100.00
2019-01-27T05:41:41.443Z,100.00
2019-01-27T05:44:12.469Z,100.00
2019-01-27T05:46:44.468Z,100.00
2019-01-27T05:49:16.497Z,100.00
2019-01-27T05:51:48.585Z,100.00
2019-01-27T05:54:20.241Z,100.00
2019-01-27T05:56:56.451Z,100.00
2019-01-27T05:59:25.464Z,100.00
2019-01-27T06:01:58.657Z,100.00
2019-01-27T06:04:30.643Z,100.00
2019-01-27T06:07:01.090Z,100.00
2019-01-27T06:09:31.629Z,100.00
2019-01-27T06:12:03.686Z,100.00
2019-01-27T06:14:36.674Z,100.00
2019-01-27T06:17:07.594Z,100.00
2019-01-27T06:19:38.629Z,100.00
2019-01-27T06:22:09.675Z,100.00
2019-01-27T06:24:40.779Z,100.00
2019-01-27T06:27:11.781Z,100.00
2019-01-27T06:29:42.715Z,100.00
2019-01-27T06:32:21.831Z,100.00
2019-01-27T06:34:53.933Z,100.00
2019-01-27T06:37:25.088Z,100.00
2019-01-27T06:39:55.719Z,100.00
2019-01-27T06:42:26.839Z,100.00
2019-01-27T06:44:57.679Z,100.00
2019-01-27T06:47:29.954Z,100.00
2019-01-27T06:50:01.876Z,100.00
2019-01-27T06:52:32.751Z,100.00
2019-01-27T06:55:04.759Z,100.00
2019-01-27T06:57:37.916Z,100.00
2019-01-27T07:00:34.760Z,100.00
2019-01-27T07:03:21.427Z,100.00
2019-01-27T07:05:59.986Z,100.00
2019-01-27T07:08:42.800Z,100.00
2019-01-27T07:11:37.616Z,100.00
2019-01-27T07:14:34.101Z,97.94
2019-01-27T07:17:28.233Z,93.78
2019-01-27T07:20:20.873Z,91.61
2019-01-27T07:23:10.079Z,89.28
2019-01-27T07:26:00.625Z,87.16
2019-01-27T07:28:40.274Z,86.21
2019-01-27T07:31:37.912Z,85.87
2019-01-27T07:34:28.803Z,85.85
2019-01-27T07:37:23.893Z,85.23
2019-01-27T07:40:33.877Z,84.84
2019-01-27T07:43:17.088Z,84.36
2019-01-27T07:45:52.364Z,84.41
2019-01-27T07:48:41.569Z,84.28
2019-01-27T07:51:30.862Z,84.32
2019-01-27T07:54:20.590Z,84.20
2019-01-27T07:57:17.472Z,84.04
2019-01-27T08:00:03.684Z,83.97
2019-01-27T08:02:52.979Z,83.57
2019-01-27T08:05:47.222Z,83.30
2019-01-27T08:08:38.986Z,82.99
2019-01-27T08:11:34.172Z,82.46
2019-01-27T08:14:26.120Z,81.94
2019-01-27T08:17:13.411Z,81.60
2019-01-27T08:20:04.041Z,81.85
2019-01-27T08:23:04.977Z,82.10
2019-01-27T08:25:59.890Z,82.28
2019-01-27T08:28:41.645Z,82.22
2019-01-27T08:31:22.422Z,81.21
2019-01-27T08:34:12.257Z,80.18
2019-01-27T08:36:58.697Z,79.36
2019-01-27T08:39:40.295Z,79.50
2019-01-27T08:42:29.969Z,79.26
2019-01-27T08:45:23.338Z,77.96
2019-01-27T08:47:56.204Z,77.07
2019-01-27T08:50:27.040Z,76.26
2019-01-27T08:52:57.439Z,76.29
2019-01-27T08:55:28.386Z,76.38
2019-01-27T08:58:01.082Z,76.28
2019-01-27T09:00:38.073Z,76.46
2019-01-27T09:03:22.777Z,76.62
2019-01-27T09:06:04.758Z,75.77
2019-01-27T09:08:55.391Z,74.85
2019-01-27T09:11:44.762Z,74.96
2019-01-27T09:14:41.832Z,75.25
2019-01-27T09:17:32.329Z,74.75
2019-01-27T09:20:28.897Z,74.38
2019-01-27T09:23:22.496Z,74.47
2019-01-27T09:26:13.247Z,73.95
2019-01-27T09:29:02.215Z,74.04
2019-01-27T09:31:41.829Z,73.67
2019-01-27T09:34:28.707Z,73.56
2019-01-27T09:37:27.827Z,72.48
2019-01-27T09:40:14.394Z,72.10
2019-01-27T09:43:08.573Z,70.64
2019-01-27T09:46:05.189Z,70.55
2019-01-27T09:48:49.547Z,70.46
2019-01-27T09:51:34.878Z,70.04
2019-01-27T09:54:19.204Z,70.08
2019-01-27T09:57:01.427Z,69.86
2019-01-27T09:59:54.677Z,69.31
2019-01-27T10:02:34.948Z,69.61
2019-01-27T10:05:43.644Z,69.00
2019-01-27T10:08:27.690Z,69.14
2019-01-27T10:11:26.556Z,68.95
2019-01-27T10:14:19.566Z,68.28
2019-01-27T10:17:21.618Z,68.28
2019-01-27T10:20:23.588Z,67.96
2019-01-27T10:23:06.136Z,67.30
2019-01-27T10:25:52.150Z,66.81
2019-01-27T10:28:36.951Z,66.62
2019-01-27T10:31:33.548Z,66.34
2019-01-27T10:34:24.419Z,65.55
2019-01-27T10:37:00.821Z,65.33
2019-01-27T10:39:57.680Z,65.05
2019-01-27T10:42:46.850Z,63.90
2019-01-27T10:45:46.655Z,64.64
2019-01-27T10:48:42.568Z,64.37
2019-01-27T10:51:30.823Z,64.43
2019-01-27T10:54:21.829Z,64.75
2019-01-27T10:57:16.566Z,63.60
2019-01-27T10:59:57.983Z,64.10
2019-01-27T11:02:57.757Z,64.44
2019-01-27T11:05:45.027Z,65.07
2019-01-27T11:08:27.795Z,64.86
2019-01-27T11:11:10.300Z,65.60
2019-01-27T11:14:05.094Z,65.42
2019-01-27T11:17:02.675Z,65.29
2019-01-27T11:19:51.936Z,65.22
2019-01-27T11:22:53.727Z,66.20
2019-01-27T11:25:43.084Z,66.20
2019-01-27T11:28:30.805Z,66.40
2019-01-27T11:31:15.615Z,65.75
2019-01-27T11:34:11.809Z,65.79
2019-01-27T11:36:54.391Z,66.05
2019-01-27T11:39:47.608Z,64.91
2019-01-27T11:42:38.612Z,64.19
2019-01-27T11:45:32.609Z,64.43
2019-01-27T11:48:15.924Z,63.72
2019-01-27T11:50:54.980Z,64.19
2019-01-27T11:53:28.176Z,64.12
2019-01-27T11:55:59.184Z,63.33
2019-01-27T11:58:30.227Z,63.35
2019-01-27T12:01:03.402Z,63.35
2019-01-27T12:03:35.274Z,62.34
2019-01-27T12:06:06.264Z,63.42
2019-01-27T12:08:37.129Z,63.24
2019-01-27T12:11:08.280Z,63.05
2019-01-27T12:13:39.210Z,63.05
2019-01-27T12:16:10.193Z,62.68
2019-01-27T12:18:43.249Z,62.68
2019-01-27T12:21:13.892Z,61.76
2019-01-27T12:23:45.372Z,61.76
2019-01-27T12:26:17.338Z,62.09
2019-01-27T12:28:50.393Z,63.01
2019-01-27T12:31:21.840Z,63.01
2019-01-27T12:33:52.281Z,63.43
2019-01-27T12:36:23.417Z,63.44
2019-01-27T12:38:54.380Z,63.45
2019-01-27T12:41:26.032Z,63.75
2019-01-27T12:43:56.624Z,63.58
2019-01-27T12:46:27.567Z,64.30
2019-01-27T12:48:58.343Z,64.48
2019-01-27T12:51:29.740Z,65.22
2019-01-27T12:54:00.372Z,65.22
2019-01-27T12:56:31.256Z,64.93
2019-01-27T12:59:03.934Z,65.24
2019-01-27T13:01:34.390Z,65.24
2019-01-27T13:04:07.624Z,66.02
2019-01-27T13:06:38.558Z,66.02
2019-01-27T13:09:11.438Z,65.92
2019-01-27T13:11:42.550Z,66.36
2019-01-27T13:14:13.442Z,67.11
2019-01-27T13:16:44.663Z,67.11
2019-01-27T13:19:17.793Z,67.35
2019-01-27T13:21:50.558Z,67.54
2019-01-27T13:24:23.695Z,67.54
2019-01-27T13:26:54.460Z,68.02
2019-01-27T13:29:26.651Z,68.02
2019-01-27T13:31:59.311Z,68.43
2019-01-27T13:34:30.506Z,68.37
2019-01-27T13:37:01.195Z,68.73
2019-01-27T13:39:31.676Z,68.73
2019-01-27T13:42:03.018Z,69.61
2019-01-27T13:44:33.693Z,69.61
2019-01-27T13:47:04.675Z,70.00
2019-01-27T13:49:35.617Z,70.07
2019-01-27T13:52:06.640Z,70.68
2019-01-27T13:54:38.016Z,70.68
2019-01-27T13:57:08.654Z,70.96
2019-01-27T13:59:39.679Z,71.19
2019-01-27T14:02:10.617Z,70.92
2019-01-27T14:04:48.300Z,70.93
2019-01-27T14:07:13.809Z,71.31
2019-01-27T14:09:46.875Z,71.31
2019-01-27T14:12:17.616Z,71.43
2019-01-27T14:14:50.854Z,71.91
2019-01-27T14:17:21.912Z,72.63
2019-01-27T14:19:52.304Z,72.80
2019-01-27T14:22:23.752Z,72.98
2019-01-27T14:24:54.711Z,73.29
2019-01-27T14:27:25.898Z,73.26
2019-01-27T14:29:57.406Z,73.93
2019-01-27T14:32:27.863Z,73.93
2019-01-27T14:35:00.287Z,73.42
2019-01-27T14:37:32.860Z,73.79
2019-01-27T14:40:04.987Z,73.88
2019-01-27T14:42:47.682Z,74.07
2019-01-27T14:45:20.374Z,74.59
2019-01-27T14:47:50.995Z,74.78
2019-01-27T14:50:31.801Z,75.06
2019-01-27T14:53:05.670Z,74.95
2019-01-27T14:55:38.936Z,75.17
2019-01-27T14:58:10.429Z,75.38
2019-01-27T15:00:42.306Z,75.36
2019-01-27T15:03:14.866Z,75.60
2019-01-27T15:05:45.991Z,75.30
2019-01-27T15:08:16.888Z,74.47
2019-01-27T15:10:48.231Z,74.47
2019-01-27T15:13:20.046Z,74.32
2019-01-27T15:15:54.525Z,74.81
2019-01-27T15:18:27.191Z,75.09
2019-01-27T15:21:05.456Z,75.94
2019-01-27T15:23:38.041Z,76.60
2019-01-27T15:26:11.008Z,76.93
2019-01-27T15:28:42.819Z,77.12
2019-01-27T15:31:13.647Z,77.61
2019-01-27T15:33:45.699Z,77.86
2019-01-27T15:36:18.052Z,78.15
2019-01-27T15:38:49.244Z,78.48
2019-01-27T15:41:20.158Z,78.76
2019-01-27T15:43:53.708Z,79.06
2019-01-27T15:46:25.098Z,79.68
2019-01-27T15:48:56.430Z,79.54
2019-01-27T15:51:27.218Z,80.00
2019-01-27T15:53:58.223Z,80.28
2019-01-27T15:56:29.231Z,80.81
2019-01-27T15:59:00.194Z,81.50
2019-01-27T16:01:31.613Z,81.95
2019-01-27T16:04:02.229Z,82.09
2019-01-27T16:06:33.518Z,82.52
2019-01-27T16:09:05.311Z,82.90
2019-01-27T16:11:37.520Z,83.38
2019-01-27T16:14:08.406Z,83.87
2019-01-27T16:16:40.336Z,84.10
2019-01-27T16:19:15.014Z,84.13
2019-01-27T16:21:47.403Z,84.21
2019-01-27T16:24:26.264Z,84.16
2019-01-27T16:26:58.450Z,84.12
2019-01-27T16:29:43.304Z,84.10
2019-01-27T16:32:22.147Z,84.12
2019-01-27T16:34:57.179Z,83.60
2019-01-27T16:37:29.380Z,83.37
2019-01-27T16:40:00.437Z,83.42
2019-01-27T16:42:31.245Z,83.44
2019-01-27T16:45:02.324Z,83.64
2019-01-27T16:47:33.486Z,84.05
2019-01-27T16:50:05.387Z,84.29
2019-01-27T16:52:38.467Z,84.49
2019-01-27T16:55:11.849Z,84.51
2019-01-27T16:57:43.477Z,84.59
2019-01-27T17:00:20.140Z,84.38
2019-01-27T17:02:51.602Z,84.28
2019-01-27T17:05:22.095Z,83.97
2019-01-27T17:07:52.713Z,83.84
2019-01-27T17:10:26.242Z,83.30
2019-01-27T17:12:57.029Z,83.34
2019-01-27T17:15:29.625Z,83.68
2019-01-27T17:18:00.921Z,84.00
2019-01-27T17:20:31.698Z,84.08
2019-01-27T17:23:02.580Z,84.01
2019-01-27T17:25:34.566Z,83.87
2019-01-27T17:28:06.834Z,84.01
2019-01-27T17:30:37.674Z,84.13
2019-01-27T17:33:09.611Z,83.92
2019-01-27T17:35:43.141Z,83.74
2019-01-27T17:38:13.667Z,83.51
2019-01-27T17:40:44.736Z,83.65
2019-01-27T17:43:16.769Z,83.83
2019-01-27T17:45:47.150Z,83.97
2019-01-27T17:48:17.837Z,84.12
2019-01-27T17:50:48.793Z,84.24
2019-01-27T17:53:20.939Z,84.09
2019-01-27T17:55:52.345Z,83.54
2019-01-27T17:58:44.988Z,83.08
2019-01-27T18:01:37.730Z,82.83
2019-01-27T18:04:28.809Z,82.86
2019-01-27T18:07:19.703Z,82.95
2019-01-27T18:10:09.733Z,83.07
2019-01-27T18:13:10.662Z,82.83
2019-01-27T18:15:44.131Z,82.95
2019-01-27T18:18:15.663Z,83.28
2019-01-27T18:20:48.516Z,83.42
2019-01-27T18:23:19.523Z,83.67
2019-01-27T18:25:50.344Z,83.71
2019-01-27T18:28:20.943Z,83.89
2019-01-27T18:30:52.077Z,83.90
2019-01-27T18:33:23.513Z,83.94
2019-01-27T18:35:54.032Z,83.98
2019-01-27T18:38:25.280Z,83.93
2019-01-27T18:40:56.011Z,83.90
2019-01-27T18:43:26.880Z,83.59
2019-01-27T18:45:58.282Z,83.34
2019-01-27T18:48:29.309Z,83.35
2019-01-27T18:51:00.075Z,83.46
2019-01-27T18:53:48.398Z,83.07
2019-01-27T18:56:47.772Z,82.83
2019-01-27T18:59:27.271Z,82.63
2019-01-27T19:02:23.190Z,82.65
2019-01-27T19:05:13.240Z,82.64
2019-01-27T19:08:06.949Z,82.73
2019-01-27T19:11:08.048Z,82.59
2019-01-27T19:14:04.045Z,82.29
2019-01-27T19:16:54.094Z,82.38
2019-01-27T19:19:34.457Z,82.18
2019-01-27T19:22:23.441Z,81.81
2019-01-27T19:25:38.277Z,81.95
2019-01-27T19:28:28.696Z,82.17
2019-01-27T19:31:08.242Z,82.74
2019-01-27T19:34:09.448Z,83.10
2019-01-27T19:36:47.237Z,83.43
2019-01-27T19:39:48.777Z,84.03
2019-01-27T19:42:38.780Z,84.08
2019-01-27T19:45:29.575Z,84.20
2019-01-27T19:48:19.795Z,84.36
2019-01-27T19:51:11.746Z,84.59
2019-01-27T19:54:04.367Z,84.52
2019-01-27T19:56:54.868Z,84.67
2019-01-27T20:00:03.675Z,84.86
2019-01-27T20:02:53.416Z,84.72
2019-01-27T20:06:01.377Z,84.80
2019-01-27T20:08:56.365Z,84.83
2019-01-27T20:11:58.113Z,84.96
2019-01-27T20:15:03.140Z,85.47
2019-01-27T20:17:45.908Z,85.94
2019-01-27T20:20:48.293Z,86.39
2019-01-27T20:23:37.790Z,86.52
2019-01-27T20:26:20.127Z,86.79
2019-01-27T20:29:00.432Z,87.09
2019-01-27T20:31:50.808Z,87.38
2019-01-27T20:34:35.401Z,87.74
2019-01-27T20:37:36.163Z,87.94
2019-01-27T20:40:28.185Z,87.86
2019-01-27T20:43:13.533Z,87.77
2019-01-27T20:46:06.316Z,87.71
2019-01-27T20:48:51.089Z,87.81
2019-01-27T20:51:36.443Z,88.11
2019-01-27T20:54:26.038Z,88.67
2019-01-27T20:57:15.985Z,89.17
2019-01-27T20:59:59.818Z,89.60
2019-01-27T21:02:51.521Z,90.09
2019-01-27T21:05:32.947Z,90.63
2019-01-27T21:08:18.739Z,91.26
2019-01-27T21:11:15.441Z,91.73
2019-01-27T21:14:02.794Z,92.11
2019-01-27T21:16:41.395Z,92.76
2019-01-27T21:19:28.564Z,93.08
2019-01-27T21:22:00.577Z,93.31
2019-01-27T21:24:32.602Z,93.56
2019-01-27T21:27:06.523Z,93.80
2019-01-27T21:29:36.732Z,94.06
2019-01-27T21:32:07.792Z,94.37
2019-01-27T21:34:38.612Z,94.61
2019-01-27T21:37:11.803Z,94.87
2019-01-27T21:39:44.830Z,95.04
2019-01-27T21:42:15.292Z,95.13
2019-01-27T21:44:45.694Z,95.13
2019-01-27T21:47:17.826Z,95.06
2019-01-27T21:49:50.855Z,94.89
2019-01-27T21:52:25.720Z,94.56
2019-01-27T21:54:58.883Z,94.42
2019-01-27T21:57:29.878Z,94.41
2019-01-27T22:00:01.274Z,94.53
2019-01-27T22:02:33.815Z,94.78
2019-01-27T22:05:06.422Z,95.04
2019-01-27T22:07:38.947Z,95.30
2019-01-27T22:10:12.914Z,95.56
2019-01-27T22:12:43.979Z,95.44
2019-01-27T22:15:14.718Z,95.36
2019-01-27T22:17:45.882Z,95.48
2019-01-27T22:20:17.848Z,95.57
2019-01-27T22:22:50.842Z,95.58
2019-01-27T22:25:21.647Z,95.72
2019-01-27T22:27:52.076Z,95.75
2019-01-27T22:30:23.689Z,95.80
2019-01-27T22:32:54.494Z,95.92
2019-01-27T22:35:25.404Z,96.03
2019-01-27T22:37:58.894Z,96.04
2019-01-27T22:40:32.375Z,95.97
2019-01-27T22:43:04.013Z,95.86
2019-01-27T22:45:43.927Z,95.59
2019-01-27T22:48:14.828Z,95.24
2019-01-27T22:50:46.031Z,95.16
2019-01-27T22:53:17.201Z,95.03
2019-01-27T22:55:48.144Z,94.83
2019-01-27T22:58:19.078Z,94.65
2019-01-27T23:01:05.499Z,94.49
2019-01-27T23:03:38.517Z,94.02
2019-01-27T23:06:10.580Z,94.00
2019-01-27T23:08:41.111Z,94.09
2019-01-27T23:11:12.052Z,94.37
2019-01-27T23:13:43.207Z,94.53
2019-01-27T23:16:20.642Z,94.75
2019-01-27T23:18:53.232Z,94.89
2019-01-27T23:21:24.103Z,95.02
2019-01-27T23:23:56.046Z,94.96
2019-01-27T23:26:51.128Z,94.93
2019-01-27T23:29:24.376Z,94.96
2019-01-27T23:31:55.428Z,94.72
2019-01-27T23:34:26.137Z,94.44
2019-01-27T23:36:57.352Z,94.05
2019-01-27T23:39:29.897Z,93.73
2019-01-27T23:42:02.469Z,93.45
2019-01-27T23:44:34.196Z,93.30
2019-01-27T23:47:07.202Z,93.16
2019-01-27T23:49:38.100Z,93.26
2019-01-27T23:52:10.762Z,93.42
2019-01-27T23:54:43.249Z,93.56
2019-01-27T23:57:14.765Z,93.94
2019-01-27T23:59:47.324Z,94.13
